Time;durP1;ratioP1;P1;durP2;ratioP2;P2;SDS_P1;SDS_P2;PMS_P1;PMS_P2;Temp;Humidity;BMP_temperature;BMP_pressure;BME280_temperature;BME280_humidity;BME280_pressure;Samples;Min_cycle;Max_cycle;Signal;HPM_P1;HPM_P2
2022/12/09 00:00:22;;;;;;;13.93;11.80;;;;;;;;;;1270598;23;20440;-78
2022/12/09 00:00:53;;;;;;;14.85;11.10;;;;;;;;;;1269640;23;20481;-78
2022/12/09 00:01:24;;;;;;;13.15;10.80;;;;;;;;;;1270608;23;20085;-78
2022/12/09 00:01:55;;;;;;;12.32;11.02;;;;;;;;;;1270463;23;20008;-78
2022/12/09 00:02:27;;;;;;;13.68;11.10;;;;;;;;;;1270004;23;20006;-77
2022/12/09 00:02:58;;;;;;;15.57;12.70;;;;;;;;;;1263918;23;20009;-78
2022/12/09 00:03:29;;;;;;;12.82;10.85;;;;;;;;;;1264242;23;20013;-78
2022/12/09 00:04:00;;;;;;;14.45;11.38;;;;;;;;;;1264606;23;20025;-78
2022/12/09 00:04:31;;;;;;;13.85;12.35;;;;;;;;;;1270320;23;20061;-78
2022/12/09 00:05:03;;;;;;;13.13;11.43;;;;;;;;;;1264462;23;20006;-78
2022/12/09 00:05:33;;;;;;;15.10;11.65;;;;;;;;;;1270379;23;20002;-78
2022/12/09 00:06:06;;;;;;;13.43;11.70;;;;;;;;;;1270194;23;20033;-79
2022/12/09 00:06:37;;;;;;;16.10;12.50;;;;;;;;;;1269961;23;20006;-78
2022/12/09 00:07:08;;;;;;;13.57;12.18;;;;;;;;;;1270535;23;20001;-79
2022/12/09 00:07:38;;;;;;;13.98;12.63;;;;;;;;;;1264100;23;20002;-78
2022/12/09 00:08:09;;;;;;;16.90;12.75;;;;;;;;;;1270263;23;20401;-78
2022/12/09 00:08:40;;;;;;;16.20;11.82;;;;;;;;;;1269996;23;20002;-77
2022/12/09 00:09:14;;;;;;;12.50;10.02;;;;;;;;;;1269812;23;20001;-78
2022/12/09 00:09:45;;;;;;;13.18;10.75;;;;;;;;;;1269308;23;20080;-78
2022/12/09 00:10:16;;;;;;;14.85;12.43;;;;;;;;;;1270041;23;20116;-78
2022/12/09 00:10:47;;;;;;;15.45;13.15;;;;;;;;;;1269080;23;20002;-78
2022/12/09 00:11:18;;;;;;;15.85;11.80;;;;;;;;;;1264211;23;20118;-79
2022/12/09 00:11:51;;;;;;;13.30;11.35;;;;;;;;;;1270024;23;20033;-78
2022/12/09 00:12:22;;;;;;;13.07;10.60;;;;;;;;;;1270122;23;20437;-79
2022/12/09 00:12:54;;;;;;;14.25;12.13;;;;;;;;;;1270205;23;20433;-78
2022/12/09 00:13:25;;;;;;;13.05;11.75;;;;;;;;;;1271086;23;19997;-78
2022/12/09 00:13:58;;;;;;;14.18;12.25;;;;;;;;;;1270076;23;20021;-78
2022/12/09 00:14:29;;;;;;;16.35;12.18;;;;;;;;;;1270037;23;19993;-78
2022/12/09 00:15:00;;;;;;;14.60;13.00;;;;;;;;;;1264089;23;20002;-77
2022/12/09 00:15:31;;;;;;;14.75;12.82;;;;;;;;;;1264490;23;20315;-78
2022/12/09 00:16:12;;;;;;;14.10;12.57;;;;;;;;;;1270351;23;20006;-78
2022/12/09 00:16:43;;;;;;;15.05;12.20;;;;;;;;;;1269921;23;20009;-78
2022/12/09 00:17:14;;;;;;;15.65;12.52;;;;;;;;;;1272896;23;20005;-78
2022/12/09 00:17:45;;;;;;;14.40;12.70;;;;;;;;;;1276328;23;19997;-79
2022/12/09 00:18:16;;;;;;;13.05;11.68;;;;;;;;;;1270368;23;19997;-78
2022/12/09 00:18:47;;;;;;;14.35;11.93;;;;;;;;;;1263490;23;20473;-78
2022/12/09 00:19:18;;;;;;;13.20;11.75;;;;;;;;;;1263996;23;20084;-78
2022/12/09 00:19:49;;;;;;;14.02;12.00;;;;;;;;;;1264359;23;19998;-78
2022/12/09 00:20:20;;;;;;;14.80;12.02;;;;;;;;;;1270258;23;20116;-78
2022/12/09 00:20:52;;;;;;;13.75;11.93;;;;;;;;;;1270186;23;20077;-79
2022/12/09 00:21:24;;;;;;;15.18;12.48;;;;;;;;;;1277052;23;20011;-78
2022/12/09 00:21:55;;;;;;;15.30;12.75;;;;;;;;;;1276400;23;19997;-77
2022/12/09 00:22:26;;;;;;;14.45;12.63;;;;;;;;;;1276823;23;20056;-78
2022/12/09 00:22:57;;;;;;;14.73;13.13;;;;;;;;;;1269893;23;20357;-78
2022/12/09 00:23:28;;;;;;;14.93;12.43;;;;;;;;;;1264137;23;20331;-79
2022/12/09 00:24:00;;;;;;;17.17;13.63;;;;;;;;;;1263742;23;20010;-78
2022/12/09 00:24:31;;;;;;;15.80;13.35;;;;;;;;;;1264426;23;20008;-78
2022/12/09 00:25:03;;;;;;;15.18;13.57;;;;;;;;;;1264083;23;20406;-78
2022/12/09 00:25:34;;;;;;;17.77;12.95;;;;;;;;;;1264081;23;20010;-78
2022/12/09 00:26:05;;;;;;;14.38;12.65;;;;;;;;;;1264541;23;20024;-79
2022/12/09 00:26:36;;;;;;;14.50;12.98;;;;;;;;;;1270424;23;20001;-78
2022/12/09 00:27:07;;;;;;;14.30;12.80;;;;;;;;;;1270488;23;20010;-78
2022/12/09 00:27:38;;;;;;;13.73;12.25;;;;;;;;;;1270105;23;20012;-78
2022/12/09 00:28:08;;;;;;;15.05;13.45;;;;;;;;;;1270288;23;20009;-78
2022/12/09 00:28:39;;;;;;;14.13;12.50;;;;;;;;;;1270267;23;20029;-78
2022/12/09 00:29:11;;;;;;;16.33;13.73;;;;;;;;;;1270506;23;20025;-78
2022/12/09 00:29:42;;;;;;;13.40;11.90;;;;;;;;;;1270038;23;20706;-78
2022/12/09 00:30:13;;;;;;;16.33;12.95;;;;;;;;;;1270191;23;20429;-78
2022/12/09 00:30:44;;;;;;;16.08;13.50;;;;;;;;;;1263532;23;20493;-78
2022/12/09 00:31:17;;;;;;;14.07;12.57;;;;;;;;;;1264788;23;20096;-78
2022/12/09 00:31:48;;;;;;;13.27;11.88;;;;;;;;;;1263800;23;20032;-78
2022/12/09 00:32:19;;;;;;;12.50;11.13;;;;;;;;;;1258715;23;20094;-78
2022/12/09 00:32:50;;;;;;;14.10;12.30;;;;;;;;;;1263788;23;20002;-78
2022/12/09 00:33:21;;;;;;;15.43;13.27;;;;;;;;;;1264594;23;20236;-77
2022/12/09 00:33:53;;;;;;;15.07;13.00;;;;;;;;;;1270459;23;20033;-77
2022/12/09 00:34:24;;;;;;;15.80;12.45;;;;;;;;;;1269641;23;20013;-78
2022/12/09 00:34:55;;;;;;;14.90;12.73;;;;;;;;;;1263825;23;20028;-77
2022/12/09 00:35:26;;;;;;;14.98;11.55;;;;;;;;;;1264158;23;20520;-78
2022/12/09 00:36:03;;;;;;;14.93;12.48;;;;;;;;;;1264171;23;19998;-78
2022/12/09 00:36:34;;;;;;;12.98;11.57;;;;;;;;;;1263118;23;20064;-78
2022/12/09 00:37:05;;;;;;;13.75;11.48;;;;;;;;;;1265948;23;20049;-78
2022/12/09 00:37:36;;;;;;;14.40;12.30;;;;;;;;;;1269921;23;20091;-78
2022/12/09 00:38:07;;;;;;;13.93;11.70;;;;;;;;;;1270343;23;20006;-78
2022/12/09 00:38:38;;;;;;;14.20;12.07;;;;;;;;;;1269384;23;20516;-78
2022/12/09 00:39:10;;;;;;;14.82;12.48;;;;;;;;;;1270027;23;20009;-78
2022/12/09 00:39:42;;;;;;;13.30;11.90;;;;;;;;;;1269049;23;20037;-78
2022/12/09 00:40:13;;;;;;;13.02;11.60;;;;;;;;;;1264121;23;20085;-78
2022/12/09 00:40:44;;;;;;;13.75;12.20;;;;;;;;;;1269914;23;20492;-78
2022/12/09 00:41:16;;;;;;;15.23;12.65;;;;;;;;;;1270270;23;20029;-78
2022/12/09 00:41:48;;;;;;;12.90;11.38;;;;;;;;;;1270084;23;20002;-78
2022/12/09 00:42:20;;;;;;;14.38;12.05;;;;;;;;;;1271525;23;20100;-78
2022/12/09 00:42:51;;;;;;;16.15;13.63;;;;;;;;;;1276017;23;20024;-78
2022/12/09 00:43:22;;;;;;;14.90;12.02;;;;;;;;;;1270271;23;20419;-78
2022/12/09 00:43:53;;;;;;;13.40;12.00;;;;;;;;;;1263764;23;20465;-78
2022/12/09 00:44:25;;;;;;;15.02;12.25;;;;;;;;;;1263776;23;20009;-79
2022/12/09 00:44:56;;;;;;;14.77;12.73;;;;;;;;;;1264326;23;19997;-78
2022/12/09 00:45:27;;;;;;;16.45;12.80;;;;;;;;;;1264557;23;20002;-78
2022/12/09 00:45:58;;;;;;;13.30;11.32;;;;;;;;;;1270162;23;20333;-79
2022/12/09 00:46:29;;;;;;;13.52;11.80;;;;;;;;;;1270109;23;19998;-77
2022/12/09 00:47:00;;;;;;;13.10;11.70;;;;;;;;;;1270128;23;20005;-78
2022/12/09 00:47:31;;;;;;;15.27;11.40;;;;;;;;;;1269494;23;20002;-78
2022/12/09 00:48:05;;;;;;;12.85;10.23;;;;;;;;;;1270205;23;20092;-78
2022/12/09 00:48:37;;;;;;;12.98;10.25;;;;;;;;;;1268825;23;20088;-78
2022/12/09 00:49:09;;;;;;;13.68;10.82;;;;;;;;;;1269912;23;20010;-78
2022/12/09 00:49:40;;;;;;;12.60;10.68;;;;;;;;;;1268567;23;20037;-78
2022/12/09 00:50:11;;;;;;;12.02;9.88;;;;;;;;;;1264264;23;20006;-78
2022/12/09 00:50:42;;;;;;;12.80;11.20;;;;;;;;;;1264647;23;20001;-78
2022/12/09 00:51:14;;;;;;;15.25;10.98;;;;;;;;;;1270207;23;20120;-78
2022/12/09 00:51:45;;;;;;;13.80;11.10;;;;;;;;;;1269716;23;20372;-79
2022/12/09 00:52:16;;;;;;;13.65;10.63;;;;;;;;;;1270362;23;20334;-78
2022/12/09 00:52:47;;;;;;;11.95;10.30;;;;;;;;;;1269138;23;20485;-78
2022/12/09 00:53:18;;;;;;;12.77;11.05;;;;;;;;;;1270218;23;20092;-78
2022/12/09 00:53:54;;;;;;;12.02;10.55;;;;;;;;;;1269934;23;20092;-77
2022/12/09 00:54:25;;;;;;;10.93;9.35;;;;;;;;;;1270006;23;20001;-78
2022/12/09 00:54:56;;;;;;;11.93;9.63;;;;;;;;;;1268570;23;20041;-77
2022/12/09 00:55:27;;;;;;;10.98;9.40;;;;;;;;;;1269969;23;20005;-78
2022/12/09 00:55:58;;;;;;;11.25;9.95;;;;;;;;;;1269943;23;20010;-78
2022/12/09 00:56:29;;;;;;;13.48;10.88;;;;;;;;;;1269439;23;20009;-78
2022/12/09 00:57:00;;;;;;;13.30;10.57;;;;;;;;;;1264017;23;20073;-78
2022/12/09 00:57:31;;;;;;;13.70;10.43;;;;;;;;;;1264524;23;19998;-78
2022/12/09 00:58:02;;;;;;;12.65;10.57;;;;;;;;;;1264670;23;20223;-78
2022/12/09 00:58:33;;;;;;;12.30;10.95;;;;;;;;;;1269944;23;20001;-77
2022/12/09 00:59:04;;;;;;;13.48;11.00;;;;;;;;;;1269865;23;20603;-78
2022/12/09 00:59:35;;;;;;;11.55;10.32;;;;;;;;;;1270083;23;20461;-78
2022/12/09 01:00:07;;;;;;;11.98;10.60;;;;;;;;;;1269922;23;20364;-78
2022/12/09 01:00:38;;;;;;;11.10;9.90;;;;;;;;;;1269132;23;20006;-78
2022/12/09 01:01:09;;;;;;;11.75;9.57;;;;;;;;;;1269392;23;20080;-78
2022/12/09 01:01:40;;;;;;;10.85;9.40;;;;;;;;;;1269991;23;20054;-78
2022/12/09 01:02:11;;;;;;;17.30;9.50;;;;;;;;;;1269863;23;20088;-77
2022/12/09 01:02:42;;;;;;;13.20;9.77;;;;;;;;;;1269675;23;20062;-77
2022/12/09 01:03:14;;;;;;;12.85;10.30;;;;;;;;;;1269952;23;19994;-78
2022/12/09 01:03:45;;;;;;;11.75;9.95;;;;;;;;;;1270208;23;20025;-78
2022/12/09 01:04:16;;;;;;;13.48;10.23;;;;;;;;;;1270041;23;20017;-78
2022/12/09 01:04:49;;;;;;;12.52;9.45;;;;;;;;;;1269175;23;20024;-78
2022/12/09 01:05:20;;;;;;;13.43;10.65;;;;;;;;;;1265072;23;20032;-78
2022/12/09 01:05:51;;;;;;;10.50;8.98;;;;;;;;;;1269803;23;20001;-77
2022/12/09 01:06:24;;;;;;;12.32;10.07;;;;;;;;;;1270058;23;19998;-78
2022/12/09 01:06:55;;;;;;;12.65;10.30;;;;;;;;;;1269774;23;20001;-78
2022/12/09 01:07:26;;;;;;;11.48;9.52;;;;;;;;;;1269328;23;19990;-78
2022/12/09 01:07:57;;;;;;;16.88;9.80;;;;;;;;;;1270193;23;20453;-78
2022/12/09 01:08:28;;;;;;;12.35;10.32;;;;;;;;;;1269465;23;20001;-78
2022/12/09 01:08:58;;;;;;;10.90;9.70;;;;;;;;;;1270123;23;20004;-79
2022/12/09 01:09:29;;;;;;;10.68;8.85;;;;;;;;;;1269285;23;19998;-78
2022/12/09 01:10:00;;;;;;;11.40;9.50;;;;;;;;;;1264192;23;20034;-78
2022/12/09 01:10:33;;;;;;;12.07;10.38;;;;;;;;;;1264204;23;20137;-78
2022/12/09 01:11:08;;;;;;;12.27;9.68;;;;;;;;;;1264762;23;20006;-78
2022/12/09 01:11:39;;;;;;;10.30;8.95;;;;;;;;;;1269936;23;20092;-78
2022/12/09 01:12:10;;;;;;;13.35;10.68;;;;;;;;;;1270464;23;20002;-78
2022/12/09 01:12:41;;;;;;;12.00;9.77;;;;;;;;;;1269537;23;20207;-78
2022/12/09 01:13:13;;;;;;;9.65;7.95;;;;;;;;;;1270423;23;20380;-78
2022/12/09 01:13:44;;;;;;;11.68;9.82;;;;;;;;;;1269894;23;20012;-77
2022/12/09 01:14:15;;;;;;;11.77;10.10;;;;;;;;;;1270208;23;20049;-77
2022/12/09 01:14:46;;;;;;;11.65;9.70;;;;;;;;;;1269650;23;20062;-79
2022/12/09 01:15:17;;;;;;;12.60;10.23;;;;;;;;;;1270238;23;20532;-78
2022/12/09 01:15:48;;;;;;;15.05;9.45;;;;;;;;;;1269506;23;20092;-78
2022/12/09 01:16:20;;;;;;;10.77;9.38;;;;;;;;;;1270364;23;20001;-78
2022/12/09 01:16:51;;;;;;;12.95;10.43;;;;;;;;;;1263398;23;20006;-79
2022/12/09 01:17:22;;;;;;;10.65;9.35;;;;;;;;;;1265037;23;20002;-78
2022/12/09 01:17:53;;;;;;;18.13;9.52;;;;;;;;;;1269767;23;20124;-78
2022/12/09 01:18:24;;;;;;;12.25;9.23;;;;;;;;;;1270816;23;20006;-78
2022/12/09 01:18:58;;;;;;;12.93;10.68;;;;;;;;;;1269436;23;20041;-79
2022/12/09 01:19:29;;;;;;;12.13;8.35;;;;;;;;;;1270001;23;20364;-78
2022/12/09 01:20:00;;;;;;;11.75;9.38;;;;;;;;;;1270086;23;20385;-78
2022/12/09 01:20:31;;;;;;;15.65;10.63;;;;;;;;;;1264861;23;20005;-78
2022/12/09 01:21:02;;;;;;;11.18;8.38;;;;;;;;;;1269797;23;20013;-78
2022/12/09 01:21:33;;;;;;;11.45;9.38;;;;;;;;;;1263880;23;20005;-78
2022/12/09 01:22:04;;;;;;;12.13;9.50;;;;;;;;;;1263834;23;20073;-78
2022/12/09 01:22:35;;;;;;;13.00;10.43;;;;;;;;;;1264085;23;20038;-78
2022/12/09 01:23:06;;;;;;;11.40;9.55;;;;;;;;;;1264290;23;20069;-78
2022/12/09 01:23:37;;;;;;;12.90;10.63;;;;;;;;;;1264330;23;20413;-78
2022/12/09 01:24:09;;;;;;;12.30;10.05;;;;;;;;;;1269739;23;20045;-78
2022/12/09 01:24:40;;;;;;;13.73;11.48;;;;;;;;;;1270142;23;20338;-78
2022/12/09 01:25:11;;;;;;;10.57;8.88;;;;;;;;;;1269769;23;20429;-78
2022/12/09 01:25:41;;;;;;;11.35;9.60;;;;;;;;;;1270007;23;20013;-78
2022/12/09 01:26:12;;;;;;;12.10;10.85;;;;;;;;;;1269789;23;20101;-78
2022/12/09 01:26:43;;;;;;;11.70;10.18;;;;;;;;;;1270020;23;20519;-78
2022/12/09 01:27:14;;;;;;;13.38;11.02;;;;;;;;;;1269961;23;20438;-78
2022/12/09 01:27:45;;;;;;;12.70;10.25;;;;;;;;;;1270019;23;20036;-78
2022/12/09 01:28:16;;;;;;;10.85;8.98;;;;;;;;;;1270108;23;20496;-78
2022/12/09 01:28:51;;;;;;;13.75;10.70;;;;;;;;;;1264161;23;20622;-78
2022/12/09 01:29:22;;;;;;;13.90;10.75;;;;;;;;;;1269629;23;19997;-78
2022/12/09 01:29:53;;;;;;;12.18;10.57;;;;;;;;;;1270058;23;20048;-78
2022/12/09 01:30:24;;;;;;;12.07;9.38;;;;;;;;;;1269764;23;20021;-78
2022/12/09 01:30:55;;;;;;;13.10;11.02;;;;;;;;;;1269953;23;20013;-78
2022/12/09 01:31:26;;;;;;;14.88;10.20;;;;;;;;;;1269611;23;20009;-78
2022/12/09 01:31:57;;;;;;;11.10;9.73;;;;;;;;;;1269659;23;20104;-79
2022/12/09 01:32:28;;;;;;;12.23;10.45;;;;;;;;;;1263903;23;20012;-79
2022/12/09 01:32:59;;;;;;;11.90;10.13;;;;;;;;;;1264603;23;20406;-79
2022/12/09 01:33:30;;;;;;;13.65;9.68;;;;;;;;;;1269582;23;20095;-78
2022/12/09 01:34:00;;;;;;;12.27;10.80;;;;;;;;;;1270394;23;20029;-78
2022/12/09 01:34:32;;;;;;;14.15;10.68;;;;;;;;;;1269359;23;20433;-78
2022/12/09 01:35:03;;;;;;;12.90;10.63;;;;;;;;;;1270385;23;20422;-78
2022/12/09 01:35:34;;;;;;;13.05;10.57;;;;;;;;;;1269342;23;20096;-77
2022/12/09 01:36:06;;;;;;;12.07;10.23;;;;;;;;;;1269242;23;20013;-78
2022/12/09 01:36:37;;;;;;;13.02;10.52;;;;;;;;;;1263179;23;20005;-78
2022/12/09 01:37:08;;;;;;;13.88;10.90;;;;;;;;;;1270210;23;20017;-78
2022/12/09 01:37:39;;;;;;;13.35;10.85;;;;;;;;;;1269766;23;20049;-78
2022/12/09 01:38:10;;;;;;;13.30;11.43;;;;;;;;;;1270106;23;20033;-78
2022/12/09 01:38:41;;;;;;;13.68;11.07;;;;;;;;;;1269534;23;20033;-77
2022/12/09 01:39:12;;;;;;;13.48;10.82;;;;;;;;;;1270271;23;20091;-78
2022/12/09 01:39:43;;;;;;;10.70;9.57;;;;;;;;;;1269414;23;20017;-78
2022/12/09 01:40:15;;;;;;;12.65;10.57;;;;;;;;;;1270531;23;20009;-78
2022/12/09 01:40:46;;;;;;;12.40;10.38;;;;;;;;;;1269420;23;20005;-78
2022/12/09 01:41:18;;;;;;;12.73;10.57;;;;;;;;;;1270828;23;20008;-77
2022/12/09 01:41:50;;;;;;;11.30;9.13;;;;;;;;;;1269784;23;20009;-78
2022/12/09 01:42:22;;;;;;;12.48;10.13;;;;;;;;;;1264166;23;20010;-79
2022/12/09 01:42:53;;;;;;;12.63;10.43;;;;;;;;;;1263416;23;20058;-78
2022/12/09 01:43:24;;;;;;;12.05;9.88;;;;;;;;;;1264971;23;20056;-79
2022/12/09 01:44:10;;;;;;;11.93;9.57;;;;;;;;;;1263613;23;20374;-78
2022/12/09 01:45:01;;;;;;;15.27;10.90;;;;;;;;;;1264030;23;20078;-78
2022/12/09 01:45:37;;;;;;;13.63;10.98;;;;;;;;;;1269569;23;20089;-78
2022/12/09 01:46:09;;;;;;;14.48;12.00;;;;;;;;;;1269746;23;20013;-78
2022/12/09 01:46:40;;;;;;;12.00;10.27;;;;;;;;;;1270075;23;20012;-78
2022/12/09 01:47:20;;;;;;;11.55;9.50;;;;;;;;;;1268155;23;20067;-77
2022/12/09 01:47:54;;;;;;;11.43;9.93;;;;;;;;;;1266193;23;20037;-78
2022/12/09 01:48:29;;;;;;;12.45;9.95;;;;;;;;;;1269790;23;20036;-78
2022/12/09 01:49:00;;;;;;;13.25;10.40;;;;;;;;;;1267532;23;20012;-79
2022/12/09 01:49:33;;;;;;;13.27;11.38;;;;;;;;;;1269678;23;20093;-78
2022/12/09 01:50:04;;;;;;;13.77;12.25;;;;;;;;;;1270155;23;20322;-78
2022/12/09 01:50:36;;;;;;;13.98;11.48;;;;;;;;;;1270004;23;19998;-78
2022/12/09 01:51:10;;;;;;;13.57;11.18;;;;;;;;;;1268947;23;20014;-78
2022/12/09 01:51:42;;;;;;;14.25;11.35;;;;;;;;;;1269933;23;20440;-78
2022/12/09 01:52:16;;;;;;;13.50;11.38;;;;;;;;;;1268544;23;20009;-78
2022/12/09 01:52:48;;;;;;;13.15;10.52;;;;;;;;;;1263684;23;20013;-78
2022/12/09 01:53:21;;;;;;;11.35;10.15;;;;;;;;;;1259330;23;20006;-78
2022/12/09 01:53:52;;;;;;;13.38;11.20;;;;;;;;;;1265644;23;20006;-78
2022/12/09 01:54:23;;;;;;;16.48;12.10;;;;;;;;;;1269789;23;20085;-79
2022/12/09 01:54:54;;;;;;;14.98;12.15;;;;;;;;;;1263589;23;20010;-77
2022/12/09 01:55:25;;;;;;;13.98;11.73;;;;;;;;;;1270074;23;20005;-78
2022/12/09 01:55:58;;;;;;;13.38;11.80;;;;;;;;;;1269755;23;20441;-78
2022/12/09 01:56:31;;;;;;;12.57;10.35;;;;;;;;;;1268712;23;20685;-78
2022/12/09 01:57:03;;;;;;;14.48;11.40;;;;;;;;;;1270084;23;20037;-78
2022/12/09 01:57:34;;;;;;;12.55;10.75;;;;;;;;;;1269684;23;20088;-78
2022/12/09 01:58:05;;;;;;;12.25;10.73;;;;;;;;;;1270165;23;20010;-79
2022/12/09 01:58:36;;;;;;;13.52;10.35;;;;;;;;;;1269206;23;20009;-78
2022/12/09 01:59:10;;;;;;;12.45;10.82;;;;;;;;;;1269811;23;20009;-78
2022/12/09 01:59:41;;;;;;;14.73;11.05;;;;;;;;;;1269808;23;20005;-78
2022/12/09 02:00:12;;;;;;;14.02;12.27;;;;;;;;;;1270217;23;20017;-78
2022/12/09 02:00:43;;;;;;;14.20;11.52;;;;;;;;;;1268399;23;20009;-78
2022/12/09 02:01:16;;;;;;;14.07;12.40;;;;;;;;;;1270283;23;20001;-78
2022/12/09 02:01:49;;;;;;;14.80;11.60;;;;;;;;;;1269697;23;20009;-78
2022/12/09 02:02:20;;;;;;;14.60;11.85;;;;;;;;;;1268839;23;20069;-78
2022/12/09 02:02:54;;;;;;;13.18;11.77;;;;;;;;;;1268276;23;20009;-78
2022/12/09 02:03:24;;;;;;;16.75;11.15;;;;;;;;;;1270005;23;20079;-78
2022/12/09 02:03:56;;;;;;;13.13;11.30;;;;;;;;;;1269807;23;20137;-77
2022/12/09 02:04:27;;;;;;;14.25;11.43;;;;;;;;;;1269187;23;20005;-78
2022/12/09 02:04:58;;;;;;;13.60;11.52;;;;;;;;;;1263465;23;20002;-78
2022/12/09 02:05:30;;;;;;;12.15;10.25;;;;;;;;;;1264537;23;20013;-78
2022/12/09 02:06:01;;;;;;;12.50;10.70;;;;;;;;;;1269796;23;19997;-78
2022/12/09 02:06:32;;;;;;;12.70;10.75;;;;;;;;;;1269801;23;20002;-78
2022/12/09 02:07:05;;;;;;;12.32;10.43;;;;;;;;;;1270548;23;19997;-79
2022/12/09 02:07:36;;;;;;;12.05;10.73;;;;;;;;;;1270020;23;20017;-78
2022/12/09 02:08:11;;;;;;;12.70;11.40;;;;;;;;;;1269977;23;20092;-79
2022/12/09 02:08:42;;;;;;;13.15;10.90;;;;;;;;;;1263777;23;20113;-79
2022/12/09 02:09:13;;;;;;;12.15;10.35;;;;;;;;;;1264880;23;20028;-78
2022/12/09 02:09:44;;;;;;;15.38;11.73;;;;;;;;;;1264027;23;20057;-79
2022/12/09 02:10:15;;;;;;;14.40;11.98;;;;;;;;;;1263564;23;20002;-77
2022/12/09 02:10:51;;;;;;;13.57;11.20;;;;;;;;;;1264567;23;20006;-78
2022/12/09 02:11:38;;;;;;;15.95;12.15;;;;;;;;;;1271576;23;20394;-79
2022/12/09 02:12:21;;;;;;;13.90;11.52;;;;;;;;;;1276440;23;20204;-78
2022/12/09 02:13:10;;;;;;;13.00;11.10;;;;;;;;;;1269455;23;20064;-78
2022/12/09 02:13:53;;;;;;;14.90;10.57;;;;;;;;;;1263668;23;20006;-79
2022/12/09 02:14:27;;;;;;;13.65;10.70;;;;;;;;;;1263948;23;20002;-79
2022/12/09 02:15:05;;;;;;;11.30;9.25;;;;;;;;;;1264030;23;20107;-78
2022/12/09 02:15:36;;;;;;;13.43;10.90;;;;;;;;;;1263804;23;20006;-77
2022/12/09 02:16:09;;;;;;;13.88;11.18;;;;;;;;;;1263920;23;20092;-78
2022/12/09 02:16:44;;;;;;;13.05;11.63;;;;;;;;;;1263632;23;20537;-79
2022/12/09 02:17:25;;;;;;;15.60;11.50;;;;;;;;;;1265978;23;20009;-78
2022/12/09 02:17:59;;;;;;;13.35;10.43;;;;;;;;;;1270022;23;20005;-77
2022/12/09 02:18:42;;;;;;;14.82;11.85;;;;;;;;;;1267019;23;20063;-78
2022/12/09 02:19:31;;;;;;;13.80;11.15;;;;;;;;;;1269748;23;20009;-77
2022/12/09 02:20:02;;;;;;;13.80;11.45;;;;;;;;;;1269922;23;20045;-78
2022/12/09 02:20:42;;;;;;;14.02;11.50;;;;;;;;;;1269677;23;20010;-78
2022/12/09 02:21:39;;;;;;;13.43;11.18;;;;;;;;;;1270239;23;20060;-78
2022/12/09 02:22:12;;;;;;;14.35;11.27;;;;;;;;;;1267446;23;20012;-79
2022/12/09 02:22:45;;;;;;;13.73;11.13;;;;;;;;;;1269769;23;20473;-78
2022/12/09 02:23:23;;;;;;;13.07;10.48;;;;;;;;;;1264039;23;20071;-78
2022/12/09 02:24:04;;;;;;;14.48;10.75;;;;;;;;;;1269797;23;19997;-78
2022/12/09 02:24:42;;;;;;;12.73;10.55;;;;;;;;;;1269947;23;19997;-78
2022/12/09 02:25:22;;;;;;;14.70;10.48;;;;;;;;;;1275331;23;20001;-78
2022/12/09 02:26:06;;;;;;;15.15;11.73;;;;;;;;;;1276218;23;20005;-79
2022/12/09 02:26:44;;;;;;;15.05;12.10;;;;;;;;;;1269997;23;20330;-79
2022/12/09 02:27:18;;;;;;;14.40;11.43;;;;;;;;;;1263826;23;20016;-77
2022/12/09 02:27:55;;;;;;;12.30;10.15;;;;;;;;;;1263798;23;20061;-78
2022/12/09 02:28:41;;;;;;;13.50;11.15;;;;;;;;;;1266975;23;20005;-79
2022/12/09 02:29:30;;;;;;;13.02;11.10;;;;;;;;;;1263457;23;20033;-78
2022/12/09 02:30:05;;;;;;;13.15;10.32;;;;;;;;;;1264738;23;20006;-78
2022/12/09 02:30:43;;;;;;;15.75;11.13;;;;;;;;;;1269844;23;20144;-78
2022/12/09 02:31:27;;;;;;;15.52;10.88;;;;;;;;;;1270111;23;20010;-78
2022/12/09 02:31:57;;;;;;;13.52;11.38;;;;;;;;;;1270159;23;20514;-78
2022/12/09 02:32:34;;;;;;;14.15;12.10;;;;;;;;;;1267376;23;20365;-79
2022/12/09 02:33:13;;;;;;;15.05;12.63;;;;;;;;;;1270080;23;20013;-78
2022/12/09 02:33:59;;;;;;;15.58;12.12;;;;;;;;;;1269748;23;20480;-78
2022/12/09 02:34:33;;;;;;;13.25;11.63;;;;;;;;;;1269694;23;20016;-78
2022/12/09 02:35:14;;;;;;;15.07;10.88;;;;;;;;;;1270247;23;20009;-78
2022/12/09 02:35:53;;;;;;;16.48;12.70;;;;;;;;;;1263445;23;20105;-79
2022/12/09 02:36:26;;;;;;;13.77;11.30;;;;;;;;;;1267612;23;20009;-79
2022/12/09 02:37:16;;;;;;;14.23;11.95;;;;;;;;;;1263872;23;20006;-78
2022/12/09 02:37:53;;;;;;;19.60;12.23;;;;;;;;;;1269812;23;20647;-77
2022/12/09 02:38:30;;;;;;;16.33;12.75;;;;;;;;;;1269953;23;20020;-79
2022/12/09 02:39:02;;;;;;;14.32;11.68;;;;;;;;;;1269942;23;20006;-78
2022/12/09 02:39:39;;;;;;;15.55;12.07;;;;;;;;;;1269736;23;20059;-79
2022/12/09 02:40:19;;;;;;;13.90;10.23;;;;;;;;;;1270242;23;20015;-79
2022/12/09 02:40:52;;;;;;;15.18;10.90;;;;;;;;;;1269347;23;20009;-78
2022/12/09 02:41:25;;;;;;;13.23;10.48;;;;;;;;;;1270381;23;20005;-78
2022/12/09 02:41:57;;;;;;;13.05;10.32;;;;;;;;;;1269597;23;20005;-78
2022/12/09 02:42:31;;;;;;;13.75;10.93;;;;;;;;;;1267677;23;20315;-78
2022/12/09 02:43:04;;;;;;;12.88;10.43;;;;;;;;;;1269673;23;20065;-78
2022/12/09 02:43:37;;;;;;;15.57;12.85;;;;;;;;;;1270076;23;20072;-78
2022/12/09 02:44:13;;;;;;;14.65;11.77;;;;;;;;;;1267746;23;20017;-78
2022/12/09 02:44:46;;;;;;;14.88;11.57;;;;;;;;;;1263753;23;20500;-79
2022/12/09 02:45:19;;;;;;;14.52;11.70;;;;;;;;;;1266644;23;20481;-77
2022/12/09 02:45:51;;;;;;;15.05;12.77;;;;;;;;;;1269561;23;20033;-78
2022/12/09 02:46:22;;;;;;;15.73;12.95;;;;;;;;;;1270098;23;20005;-79
2022/12/09 02:46:54;;;;;;;14.05;11.45;;;;;;;;;;1269413;23;20008;-78
2022/12/09 02:47:27;;;;;;;14.35;11.85;;;;;;;;;;1269398;23;20808;-78
2022/12/09 02:48:00;;;;;;;14.93;11.23;;;;;;;;;;1264861;23;20008;-78
2022/12/09 02:48:33;;;;;;;16.90;13.07;;;;;;;;;;1258904;23;20017;-78
2022/12/09 02:49:04;;;;;;;16.08;12.50;;;;;;;;;;1257655;23;20013;-78
2022/12/09 02:49:36;;;;;;;13.95;12.18;;;;;;;;;;1258003;23;20002;-78
2022/12/09 02:50:10;;;;;;;15.50;12.73;;;;;;;;;;1260052;23;20824;-78
2022/12/09 02:50:42;;;;;;;15.70;14.10;;;;;;;;;;1270002;23;20065;-77
2022/12/09 02:51:16;;;;;;;16.23;13.00;;;;;;;;;;1263405;23;20001;-78
2022/12/09 02:51:48;;;;;;;15.77;13.23;;;;;;;;;;1265404;23;19998;-78
2022/12/09 02:52:21;;;;;;;16.05;12.73;;;;;;;;;;1269855;23;20006;-78
2022/12/09 02:52:53;;;;;;;14.07;11.52;;;;;;;;;;1269844;23;19998;-78
2022/12/09 02:53:25;;;;;;;13.98;10.75;;;;;;;;;;1269738;23;19997;-80
2022/12/09 02:54:03;;;;;;;13.02;10.35;;;;;;;;;;1269953;23;20044;-78
2022/12/09 02:54:35;;;;;;;12.80;10.10;;;;;;;;;;1269417;23;20286;-78
2022/12/09 02:55:08;;;;;;;14.00;10.57;;;;;;;;;;1270172;23;20088;-77
2022/12/09 02:55:39;;;;;;;15.77;12.20;;;;;;;;;;1269637;23;20017;-78
2022/12/09 02:56:12;;;;;;;14.07;12.02;;;;;;;;;;1268835;23;20010;-78
2022/12/09 02:56:54;;;;;;;14.88;12.65;;;;;;;;;;1263252;23;20028;-78
2022/12/09 02:57:27;;;;;;;13.57;11.68;;;;;;;;;;1270015;23;20001;-79
2022/12/09 02:58:00;;;;;;;20.35;11.18;;;;;;;;;;1270134;23;20006;-78
2022/12/09 02:58:31;;;;;;;13.45;11.65;;;;;;;;;;1269905;23;20373;-78
2022/12/09 02:59:02;;;;;;;15.95;13.23;;;;;;;;;;1270033;23;20509;-79
2022/12/09 02:59:33;;;;;;;15.50;12.60;;;;;;;;;;1270349;23;20030;-78
2022/12/09 03:00:04;;;;;;;13.77;11.23;;;;;;;;;;1276693;23;20105;-78
2022/12/09 03:00:36;;;;;;;15.77;11.48;;;;;;;;;;1276337;23;20294;-79
2022/12/09 03:01:19;;;;;;;14.40;11.90;;;;;;;;;;1269794;23;20014;-78
2022/12/09 03:01:50;;;;;;;15.75;12.00;;;;;;;;;;1263427;23;20028;-78
2022/12/09 03:02:26;;;;;;;15.40;12.75;;;;;;;;;;1263918;23;20381;-78
2022/12/09 03:03:00;;;;;;;14.50;11.60;;;;;;;;;;1267282;23;20492;-78
2022/12/09 03:03:33;;;;;;;14.73;12.38;;;;;;;;;;1269994;23;20009;-77
2022/12/09 03:04:04;;;;;;;17.60;13.07;;;;;;;;;;1269782;23;20020;-78
2022/12/09 03:04:37;;;;;;;14.75;12.73;;;;;;;;;;1271481;23;20072;-79
2022/12/09 03:05:32;;;;;;;13.60;11.48;;;;;;;;;;1269737;23;20373;-78
2022/12/09 03:06:06;;;;;;;15.30;12.23;;;;;;;;;;1239457;23;20007;-79
2022/12/09 03:06:44;;;;;;;15.25;11.27;;;;;;;;;;1239891;23;20110;-79
2022/12/09 03:07:15;;;;;;;13.27;10.88;;;;;;;;;;1264062;23;20408;-79
2022/12/09 03:08:13;;;;;;;12.43;10.35;;;;;;;;;;1259997;23;20029;-78
2022/12/09 03:08:43;;;;;;;13.35;11.07;;;;;;;;;;1245485;23;20017;-78
2022/12/09 03:09:17;;;;;;;13.45;10.65;;;;;;;;;;1245209;23;20114;-79
2022/12/09 03:09:52;;;;;;;14.55;10.35;;;;;;;;;;1269837;23;20771;-78
2022/12/09 03:10:25;;;;;;;14.68;10.63;;;;;;;;;;1271554;23;20398;-79
2022/12/09 03:11:01;;;;;;;14.60;11.85;;;;;;;;;;1269974;23;20096;-79
2022/12/09 03:11:33;;;;;;;14.15;11.52;;;;;;;;;;1269897;23;20041;-77
2022/12/09 03:12:06;;;;;;;12.95;11.02;;;;;;;;;;1263826;23;20002;-79
2022/12/09 03:12:38;;;;;;;14.85;11.52;;;;;;;;;;1265667;23;20005;-78